createdAt,value
2018-06-20T00:01:48.068Z,18.90
2018-06-20T00:04:17.029Z,19.67
2018-06-20T00:06:46.041Z,19.77
2018-06-20T00:09:15.110Z,20.03
2018-06-20T00:11:44.113Z,19.57
2018-06-20T00:14:13.100Z,18.93
2018-06-20T00:16:42.121Z,19.50
2018-06-20T00:19:11.104Z,19.80
2018-06-20T00:21:40.125Z,22.00
2018-06-20T00:24:09.125Z,19.63
2018-06-20T00:26:38.187Z,18.97
2018-06-20T00:29:07.243Z,20.53
2018-06-20T00:31:36.226Z,20.20
2018-06-20T00:34:05.390Z,20.63
2018-06-20T00:36:34.575Z,22.77
2018-06-20T00:39:04.570Z,22.37
2018-06-20T00:41:33.611Z,21.10
2018-06-20T00:44:02.740Z,23.23
2018-06-20T00:46:31.746Z,22.17
2018-06-20T00:49:00.731Z,23.30
2018-06-20T00:51:29.825Z,22.60
2018-06-20T00:53:59.037Z,22.83
2018-06-20T00:56:29.328Z,23.53
2018-06-20T00:58:58.347Z,22.97
2018-06-20T01:01:27.323Z,23.43
2018-06-20T01:03:56.433Z,23.60
2018-06-20T01:06:25.312Z,25.67
2018-06-20T01:08:54.134Z,24.67
2018-06-20T01:11:23.095Z,23.27
2018-06-20T01:13:51.991Z,25.07
2018-06-20T01:16:20.989Z,25.90
2018-06-20T01:18:50.006Z,25.77
2018-06-20T01:21:19.099Z,24.70
2018-06-20T01:23:48.237Z,24.87
2018-06-20T01:26:17.309Z,25.07
2018-06-20T01:28:46.297Z,24.20
2018-06-20T01:31:15.269Z,25.33
2018-06-20T01:33:44.364Z,24.00
2018-06-20T01:36:13.338Z,25.50
2018-06-20T01:38:42.319Z,25.27
2018-06-20T01:41:11.246Z,23.57
2018-06-20T01:43:40.259Z,25.97
2018-06-20T01:46:09.206Z,26.20
2018-06-20T01:48:38.282Z,23.03
2018-06-20T01:51:07.278Z,22.93
2018-06-20T01:53:36.377Z,23.83
2018-06-20T01:56:05.376Z,25.30
2018-06-20T01:58:34.447Z,23.80
2018-06-20T02:01:03.460Z,25.30
2018-06-20T02:03:32.449Z,24.80
2018-06-20T02:06:01.484Z,24.33
2018-06-20T02:08:30.505Z,23.50
2018-06-20T02:10:59.474Z,24.40
2018-06-20T02:13:28.425Z,24.03
2018-06-20T02:15:57.396Z,25.57
2018-06-20T02:18:26.386Z,24.60
2018-06-20T02:20:55.397Z,25.17
2018-06-20T02:23:24.089Z,24.53
2018-06-20T02:25:52.946Z,26.50
2018-06-20T02:28:21.898Z,25.97
2018-06-20T02:30:50.875Z,23.73
2018-06-20T02:33:19.829Z,26.20
2018-06-20T02:35:48.550Z,26.00
2018-06-20T02:38:17.446Z,26.00
2018-06-20T02:40:46.308Z,26.43
2018-06-20T02:43:15.339Z,26.63
2018-06-20T02:45:44.322Z,27.07
2018-06-20T02:48:13.298Z,26.00
2018-06-20T02:50:42.315Z,24.03
2018-06-20T02:53:11.493Z,25.47
2018-06-20T02:55:40.419Z,24.70
2018-06-20T02:58:09.435Z,23.97
2018-06-20T03:00:38.388Z,24.80
2018-06-20T03:03:07.352Z,25.53
2018-06-20T03:05:36.348Z,23.60
2018-06-20T03:08:05.422Z,23.70
2018-06-20T03:10:34.386Z,23.10
2018-06-20T03:13:03.368Z,23.23
2018-06-20T03:15:32.328Z,24.57
2018-06-20T03:18:01.350Z,21.57
2018-06-20T03:20:30.299Z,22.93
2018-06-20T03:22:59.246Z,21.50
2018-06-20T03:25:28.241Z,21.40
2018-06-20T03:27:57.196Z,22.43
2018-06-20T03:30:26.175Z,23.63
2018-06-20T03:32:55.141Z,22.10
2018-06-20T03:35:25.471Z,23.23
2018-06-20T03:37:54.530Z,21.90
2018-06-20T03:40:23.523Z,20.37
2018-06-20T03:42:52.495Z,20.00
2018-06-20T03:45:21.548Z,21.50
2018-06-20T03:47:50.890Z,20.50
2018-06-20T03:50:19.849Z,19.80
2018-06-20T03:52:48.779Z,20.47
2018-06-20T03:55:17.541Z,20.60
2018-06-20T03:57:46.439Z,20.40
2018-06-20T04:00:15.670Z,19.53
2018-06-20T04:02:44.803Z,19.67
2018-06-20T04:05:13.846Z,19.60
2018-06-20T04:07:42.969Z,19.53
2018-06-20T04:10:11.806Z,19.63
2018-06-20T04:12:40.913Z,19.40
2018-06-20T04:15:09.910Z,17.10
2018-06-20T04:17:38.929Z,18.27
2018-06-20T04:20:07.916Z,17.87
2018-06-20T04:22:36.917Z,17.93
2018-06-20T04:25:05.909Z,17.37
2018-06-20T04:27:34.926Z,17.80
2018-06-20T04:30:03.951Z,16.47
2018-06-20T04:32:33.120Z,17.10
2018-06-20T04:35:02.210Z,17.60
2018-06-20T04:37:31.260Z,17.13
2018-06-20T04:40:00.338Z,16.83
2018-06-20T04:42:29.287Z,18.27
2018-06-20T04:44:58.330Z,16.60
2018-06-20T04:47:27.334Z,17.30
2018-06-20T04:49:56.482Z,16.20
2018-06-20T04:52:25.486Z,16.70
2018-06-20T04:54:54.536Z,16.77
2018-06-20T04:57:23.572Z,17.40
2018-06-20T04:59:52.706Z,16.37
2018-06-20T05:02:21.703Z,16.80
2018-06-20T05:04:50.657Z,16.03
2018-06-20T05:07:19.738Z,16.20
2018-06-20T05:09:48.743Z,15.60
2018-06-20T05:12:17.693Z,15.40
2018-06-20T05:14:46.642Z,14.30
2018-06-20T05:17:15.648Z,16.77
2018-06-20T05:19:44.321Z,14.67
2018-06-20T05:22:13.066Z,13.13
2018-06-20T05:24:41.872Z,12.90
2018-06-20T05:27:10.894Z,13.60
2018-06-20T05:29:39.897Z,13.33
2018-06-20T05:32:08.946Z,13.67
2018-06-20T05:34:37.949Z,12.03
2018-06-20T05:37:06.691Z,11.27
2018-06-20T05:39:35.565Z,10.37
2018-06-20T05:42:04.532Z,10.70
2018-06-20T05:44:33.279Z,9.70
2018-06-20T05:47:02.123Z,9.47
2018-06-20T05:49:31.177Z,8.93
2018-06-20T05:52:00.181Z,8.67
2018-06-20T05:54:29.740Z,8.97
2018-06-20T05:56:58.595Z,8.77
2018-06-20T05:59:27.525Z,8.83
2018-06-20T06:01:56.709Z,8.00
2018-06-20T06:04:25.725Z,9.63
2018-06-20T06:06:54.693Z,10.10
2018-06-20T06:09:23.703Z,9.80
2018-06-20T06:11:53.691Z,9.70
2018-06-20T06:14:22.698Z,10.20
2018-06-20T06:16:51.774Z,10.80
2018-06-20T06:19:20.634Z,10.57
2018-06-20T06:21:49.776Z,10.80
2018-06-20T06:24:18.717Z,12.07
2018-06-20T06:26:47.653Z,10.93
2018-06-20T06:29:17.096Z,13.97
2018-06-20T06:31:45.838Z,12.60
2018-06-20T06:34:14.648Z,12.83
2018-06-20T06:36:43.539Z,12.80
2018-06-20T06:39:13.281Z,12.30
2018-06-20T06:41:42.268Z,9.93
2018-06-20T06:44:11.369Z,9.40
2018-06-20T06:46:40.352Z,10.20
2018-06-20T06:49:09.285Z,10.60
2018-06-20T06:51:38.128Z,11.20
2018-06-20T06:54:07.152Z,9.60
2018-06-20T06:56:36.085Z,9.00
2018-06-20T06:59:05.042Z,7.60
2018-06-20T07:01:33.985Z,7.00
2018-06-20T07:04:02.910Z,6.10
2018-06-20T07:06:31.928Z,5.40
2018-06-20T07:09:00.862Z,5.60
2018-06-20T07:11:29.574Z,5.67
2018-06-20T07:13:58.220Z,6.10
2018-06-20T07:16:27.096Z,5.00
2018-06-20T07:18:56.090Z,6.20
2018-06-20T07:21:25.367Z,5.40
2018-06-20T07:23:54.423Z,5.87
2018-06-20T07:26:23.587Z,5.90
2018-06-20T07:28:52.878Z,6.40
2018-06-20T07:31:21.882Z,6.20
2018-06-20T07:33:50.811Z,6.07
2018-06-20T07:36:20.074Z,6.20
2018-06-20T07:38:48.858Z,5.70
2018-06-20T07:41:17.811Z,6.77
2018-06-20T07:43:47.540Z,5.50
2018-06-20T07:46:16.444Z,6.30
2018-06-20T07:48:45.262Z,5.73
2018-06-20T07:51:14.110Z,5.70
2018-06-20T07:53:43.157Z,4.90
2018-06-20T07:56:12.104Z,5.17
2018-06-20T07:58:46.438Z,3.87
2018-06-20T08:01:26.382Z,5.43
2018-06-20T08:04:01.312Z,5.00
2018-06-20T08:06:36.528Z,5.20
2018-06-20T08:09:12.624Z,5.73
2018-06-20T08:11:47.124Z,5.40
2018-06-20T08:14:21.733Z,5.03
2018-06-20T08:16:56.308Z,5.30
2018-06-20T08:19:30.641Z,5.07
2018-06-20T08:21:59.634Z,5.00
2018-06-20T08:24:28.565Z,5.13
2018-06-20T08:26:57.507Z,4.73
2018-06-20T08:29:26.496Z,4.80
2018-06-20T08:31:55.432Z,4.77
2018-06-20T08:34:24.207Z,5.93
2018-06-20T08:36:53.078Z,5.73
2018-06-20T08:39:22.077Z,5.77
2018-06-20T08:41:51.298Z,4.70
2018-06-20T08:44:20.630Z,5.07
2018-06-20T08:46:49.607Z,4.90
2018-06-20T08:49:18.557Z,3.83
2018-06-20T08:51:48.071Z,3.97
2018-06-20T08:54:17.075Z,4.53
2018-06-20T08:56:46.135Z,6.27
2018-06-20T08:59:15.063Z,7.17
2018-06-20T09:01:44.474Z,7.80
2018-06-20T09:04:18.842Z,7.10
2018-06-20T09:06:53.183Z,7.43
2018-06-20T09:09:27.697Z,6.70
2018-06-20T09:12:02.051Z,6.60
2018-06-20T09:14:35.122Z,8.03
2018-06-20T09:17:09.539Z,7.80
2018-06-20T09:19:47.473Z,6.40
2018-06-20T09:22:17.621Z,5.40
2018-06-20T09:24:46.726Z,6.23
2018-06-20T09:27:16.165Z,6.93
2018-06-20T09:29:45.269Z,8.23
2018-06-20T09:32:14.957Z,6.60
2018-06-20T09:34:44.441Z,7.50
2018-06-20T09:37:13.564Z,6.80
2018-06-20T09:39:42.545Z,7.13
2018-06-20T09:42:11.470Z,6.30
2018-06-20T09:44:40.553Z,6.80
2018-06-20T09:47:09.283Z,7.60
2018-06-20T09:49:38.528Z,6.47
2018-06-20T09:52:07.524Z,6.37
2018-06-20T09:54:36.911Z,6.37
2018-06-20T09:57:05.939Z,7.30
2018-06-20T09:59:40.339Z,6.37
2018-06-20T10:02:14.562Z,6.53
2018-06-20T10:04:48.918Z,5.70
2018-06-20T10:07:23.209Z,6.00
2018-06-20T10:09:57.551Z,5.13
2018-06-20T10:12:32.018Z,5.90
2018-06-20T10:15:01.035Z,5.30
2018-06-20T10:17:30.026Z,6.30
2018-06-20T10:19:59.023Z,5.50
2018-06-20T10:22:27.989Z,4.80
2018-06-20T10:24:56.993Z,4.70
2018-06-20T10:27:25.919Z,5.60
2018-06-20T10:29:54.885Z,5.50
2018-06-20T10:32:23.873Z,5.17
2018-06-20T10:34:52.822Z,5.00
2018-06-20T10:37:21.787Z,4.77
2018-06-20T10:39:50.829Z,4.47
2018-06-20T10:42:20.026Z,5.10
2018-06-20T10:44:48.945Z,5.00
2018-06-20T10:47:23.247Z,4.80
2018-06-20T10:49:52.226Z,5.20
2018-06-20T10:52:21.505Z,5.40
2018-06-20T10:54:50.533Z,5.90
2018-06-20T10:57:24.899Z,5.40
2018-06-20T10:59:59.170Z,5.80
2018-06-20T11:02:33.860Z,4.60
2018-06-20T11:05:08.292Z,5.23
2018-06-20T11:07:42.625Z,5.27
2018-06-20T11:10:17.198Z,4.67
2018-06-20T11:12:51.603Z,4.90
2018-06-20T11:15:20.636Z,4.93
2018-06-20T11:17:49.572Z,4.63
2018-06-20T11:20:22.792Z,5.87
2018-06-20T11:22:51.742Z,5.77
2018-06-20T11:25:20.758Z,5.93
2018-06-20T11:27:49.745Z,6.07
2018-06-20T11:30:18.878Z,5.90
2018-06-20T11:32:48.097Z,6.53
2018-06-20T11:35:17.086Z,5.50
2018-06-20T11:37:46.247Z,5.60
2018-06-20T11:40:15.190Z,4.63
2018-06-20T11:42:44.159Z,5.40
2018-06-20T11:45:13.857Z,5.00
2018-06-20T11:47:45.019Z,6.00
2018-06-20T11:50:14.584Z,5.63
2018-06-20T11:52:49.063Z,4.97
2018-06-20T11:55:23.321Z,5.43
2018-06-20T11:57:56.750Z,5.83
2018-06-20T12:01:32.059Z,5.10
2018-06-20T12:04:06.439Z,6.53
2018-06-20T12:06:40.788Z,6.10
2018-06-20T12:09:15.236Z,6.20
2018-06-20T12:11:50.245Z,4.37
2018-06-20T12:15:25.380Z,4.90
2018-06-20T12:17:59.634Z,6.13
2018-06-20T12:20:34.656Z,5.60
2018-06-20T12:23:09.665Z,5.80
2018-06-20T12:25:44.175Z,5.80
2018-06-20T12:28:18.458Z,5.00
2018-06-20T12:30:52.774Z,5.30
2018-06-20T12:33:27.103Z,6.03
2018-06-20T12:36:01.411Z,5.67
2018-06-20T12:38:35.805Z,6.43
2018-06-20T12:41:10.389Z,5.43
2018-06-20T12:43:44.766Z,5.83
2018-06-20T12:46:17.108Z,6.20
2018-06-20T12:48:46.064Z,4.70
2018-06-20T12:51:15.011Z,5.67
2018-06-20T12:53:44.002Z,4.43
2018-06-20T12:56:12.948Z,6.00
2018-06-20T12:58:41.913Z,4.10
2018-06-20T13:01:10.845Z,4.17
2018-06-20T13:03:39.782Z,6.57
2018-06-20T13:06:08.709Z,5.90
2018-06-20T13:08:37.748Z,6.20
2018-06-20T13:11:06.749Z,4.70
2018-06-20T13:13:35.662Z,5.17
2018-06-20T13:16:04.606Z,4.93
2018-06-20T13:18:33.549Z,4.80
2018-06-20T13:21:02.599Z,3.90
2018-06-20T13:23:31.609Z,4.00
2018-06-20T13:26:00.822Z,4.97
2018-06-20T13:28:29.796Z,4.63
2018-06-20T13:31:04.200Z,4.27
2018-06-20T13:33:38.536Z,3.90
2018-06-20T13:36:12.862Z,4.40
2018-06-20T13:38:47.497Z,4.80
2018-06-20T13:41:21.758Z,5.20
2018-06-20T13:43:56.321Z,3.77
2018-06-20T13:46:30.687Z,4.93
2018-06-20T13:48:59.634Z,5.70
2018-06-20T13:51:28.682Z,4.80
2018-06-20T13:53:57.732Z,4.70
2018-06-20T13:56:26.697Z,4.30
2018-06-20T13:58:55.444Z,4.47
2018-06-20T14:01:24.276Z,4.10
2018-06-20T14:03:53.586Z,4.90
2018-06-20T14:06:22.315Z,4.60
2018-06-20T14:08:51.134Z,3.90
2018-06-20T14:11:20.148Z,4.70
2018-06-20T14:13:49.071Z,4.43
2018-06-20T14:16:18.150Z,6.70
2018-06-20T14:18:47.136Z,5.17
2018-06-20T14:21:21.554Z,5.60
2018-06-20T14:23:50.501Z,8.27
2018-06-20T14:26:20.006Z,11.30
2018-06-20T14:28:48.966Z,7.47
2018-06-20T14:31:23.527Z,7.27
2018-06-20T14:33:57.931Z,9.30
2018-06-20T14:36:32.329Z,10.07
2018-06-20T14:39:06.794Z,7.83
2018-06-20T14:41:41.208Z,6.70
2018-06-20T14:44:11.208Z,6.97
2018-06-20T14:46:41.148Z,6.53
2018-06-20T14:49:10.015Z,6.10
2018-06-20T14:51:38.999Z,6.30
2018-06-20T14:54:08.013Z,8.47
2018-06-20T14:56:37.107Z,6.97
2018-06-20T14:59:05.812Z,8.13
2018-06-20T15:01:34.748Z,7.30
2018-06-20T15:04:03.725Z,7.20
2018-06-20T15:06:32.743Z,7.00
2018-06-20T15:09:01.766Z,8.53
2018-06-20T15:11:30.850Z,9.07
2018-06-20T15:13:59.873Z,7.67
2018-06-20T15:16:34.489Z,8.10
2018-06-20T15:19:03.498Z,6.20
2018-06-20T15:21:32.531Z,7.13
2018-06-20T15:24:01.502Z,7.73
2018-06-20T15:26:35.886Z,7.70
2018-06-20T15:29:10.371Z,8.07
2018-06-20T15:31:45.042Z,7.70
2018-06-20T15:34:19.506Z,8.00
2018-06-20T15:36:53.822Z,9.20
2018-06-20T15:39:22.559Z,8.30
2018-06-20T15:41:51.598Z,8.87
2018-06-20T15:44:20.685Z,8.57
2018-06-20T15:46:49.837Z,8.37
2018-06-20T15:49:18.937Z,9.10
2018-06-20T15:51:48.049Z,7.50
2018-06-20T15:54:17.106Z,7.47
2018-06-20T15:56:46.260Z,7.23
2018-06-20T15:59:15.194Z,6.50
2018-06-20T16:01:44.418Z,5.53
2018-06-20T16:04:13.383Z,6.83
2018-06-20T16:06:42.394Z,6.33
2018-06-20T16:09:16.864Z,6.10
2018-06-20T16:11:45.622Z,5.30
2018-06-20T16:14:14.446Z,5.37
2018-06-20T16:16:43.140Z,6.87
2018-06-20T16:19:17.372Z,5.50
2018-06-20T16:21:51.963Z,5.70
2018-06-20T16:24:26.147Z,5.10
2018-06-20T16:27:00.540Z,4.27
2018-06-20T16:29:34.789Z,3.93
2018-06-20T16:32:03.897Z,4.60
2018-06-20T16:34:33.078Z,3.90
2018-06-20T16:37:02.561Z,4.40
2018-06-20T16:39:31.561Z,3.70
2018-06-20T16:42:00.763Z,4.10
2018-06-20T16:44:30.561Z,4.40
2018-06-20T16:46:59.634Z,4.63
2018-06-20T16:49:28.666Z,4.00
2018-06-20T16:51:57.624Z,4.00
2018-06-20T16:54:26.625Z,3.67
2018-06-20T16:56:55.626Z,3.70
2018-06-20T16:59:24.993Z,4.00
2018-06-20T17:02:57.257Z,3.60
2018-06-20T17:05:26.335Z,4.00
2018-06-20T17:07:55.310Z,3.50
2018-06-20T17:10:24.410Z,4.33
2018-06-20T17:12:59.386Z,3.87
2018-06-20T17:15:33.820Z,3.90
2018-06-20T17:18:08.306Z,3.77
2018-06-20T17:20:42.767Z,4.50
2018-06-20T17:23:17.097Z,3.90
2018-06-20T17:25:46.264Z,3.73
2018-06-20T17:28:15.233Z,4.10
2018-06-20T17:30:44.281Z,4.03
2018-06-20T17:33:13.252Z,4.40
2018-06-20T17:35:42.218Z,4.30
2018-06-20T17:38:11.198Z,4.50
2018-06-20T17:40:40.269Z,5.40
2018-06-20T17:43:09.432Z,4.30
2018-06-20T17:45:38.501Z,4.50
2018-06-20T17:48:07.504Z,4.53
2018-06-20T17:50:36.501Z,4.63
2018-06-20T17:53:05.560Z,4.00
2018-06-20T17:55:34.641Z,5.07
2018-06-20T17:58:03.575Z,4.43
2018-06-20T18:00:34.861Z,5.30
2018-06-20T18:03:03.886Z,5.53
2018-06-20T18:05:38.365Z,5.00
2018-06-20T18:08:12.983Z,5.10
2018-06-20T18:10:47.746Z,4.40
2018-06-20T18:13:17.961Z,5.57
2018-06-20T18:15:52.454Z,5.90
2018-06-20T18:18:21.406Z,6.10
2018-06-20T18:20:50.382Z,6.20
2018-06-20T18:23:19.450Z,6.23
2018-06-20T18:25:48.472Z,7.17
2018-06-20T18:28:17.586Z,6.50
2018-06-20T18:30:47.246Z,6.20
2018-06-20T18:33:16.268Z,6.50
2018-06-20T18:35:45.264Z,6.23
2018-06-20T18:38:14.257Z,6.90
2018-06-20T18:40:43.201Z,6.27
2018-06-20T18:43:12.236Z,6.30
2018-06-20T18:45:41.509Z,6.33
2018-06-20T18:48:15.848Z,6.50
2018-06-20T18:50:44.866Z,6.13
2018-06-20T18:53:14.185Z,5.80
2018-06-20T18:55:43.186Z,6.30
2018-06-20T18:58:17.463Z,5.90
2018-06-20T19:00:51.881Z,5.33
2018-06-20T19:03:26.417Z,5.40
2018-06-20T19:06:00.562Z,5.73
2018-06-20T19:08:34.936Z,5.70
2018-06-20T19:11:04.004Z,5.87
2018-06-20T19:13:32.977Z,5.10
2018-06-20T19:16:02.012Z,5.57
2018-06-20T19:18:31.092Z,6.13
2018-06-20T19:21:00.095Z,5.57
2018-06-20T19:23:29.537Z,5.33
2018-06-20T19:25:58.697Z,5.53
2018-06-20T19:28:27.663Z,5.60
2018-06-20T19:30:56.802Z,6.00
2018-06-20T19:33:25.902Z,6.17
2018-06-20T19:35:54.943Z,5.73
2018-06-20T19:38:24.007Z,5.60
2018-06-20T19:40:53.051Z,6.53
2018-06-20T19:43:22.020Z,6.20
2018-06-20T19:45:51.025Z,6.20
2018-06-20T19:48:19.991Z,6.47
2018-06-20T19:50:48.998Z,6.37
2018-06-20T19:53:18.126Z,6.67
2018-06-20T19:55:47.133Z,7.10
2018-06-20T19:58:16.265Z,8.00
2018-06-20T20:00:45.274Z,7.80
2018-06-20T20:03:14.434Z,8.30
2018-06-20T20:05:43.412Z,7.67
2018-06-20T20:08:12.358Z,7.37
2018-06-20T20:10:41.435Z,8.10
2018-06-20T20:13:10.764Z,7.20
2018-06-20T20:15:39.890Z,7.93
2018-06-20T20:18:08.901Z,7.23
2018-06-20T20:20:37.962Z,7.60
2018-06-20T20:23:07.262Z,8.03
2018-06-20T20:25:36.641Z,6.17
2018-06-20T20:28:05.631Z,7.43
2018-06-20T20:30:35.714Z,7.13
2018-06-20T20:33:05.449Z,7.30
2018-06-20T20:35:34.454Z,8.20
2018-06-20T20:38:03.796Z,7.53
2018-06-20T20:40:32.878Z,8.00
2018-06-20T20:43:02.025Z,7.90
2018-06-20T20:45:31.011Z,8.23
2018-06-20T20:48:00.068Z,6.90
2018-06-20T20:50:29.349Z,7.80
2018-06-20T20:52:58.469Z,6.90
2018-06-20T20:55:27.538Z,7.07
2018-06-20T20:57:56.283Z,7.07
2018-06-20T21:00:25.142Z,6.70
2018-06-20T21:02:54.177Z,7.33
2018-06-20T21:05:23.121Z,7.30
2018-06-20T21:07:52.176Z,8.10
2018-06-20T21:10:20.965Z,7.97
2018-06-20T21:12:49.826Z,7.20
2018-06-20T21:15:18.874Z,8.50
2018-06-20T21:17:47.821Z,8.80
2018-06-20T21:20:16.772Z,7.87
2018-06-20T21:22:45.747Z,8.77
2018-06-20T21:25:14.812Z,8.00
2018-06-20T21:27:45.272Z,7.87
2018-06-20T21:30:14.322Z,8.33
2018-06-20T21:32:43.273Z,9.53
2018-06-20T21:35:12.350Z,9.13
2018-06-20T21:37:41.298Z,7.97
2018-06-20T21:40:12.237Z,8.37
2018-06-20T21:42:41.309Z,8.13
2018-06-20T21:45:10.370Z,8.80
2018-06-20T21:47:39.379Z,7.90
2018-06-20T21:50:08.318Z,8.53
2018-06-20T21:52:37.345Z,8.40
2018-06-20T21:55:06.508Z,8.43
2018-06-20T21:57:35.446Z,8.83
2018-06-20T22:00:07.495Z,8.77
2018-06-20T22:02:36.755Z,10.03
2018-06-20T22:05:05.976Z,8.67
2018-06-20T22:07:35.303Z,8.70
2018-06-20T22:10:04.681Z,8.70
2018-06-20T22:12:33.684Z,9.47
2018-06-20T22:15:02.945Z,9.07
2018-06-20T22:17:32.117Z,8.50
2018-06-20T22:20:01.028Z,9.40
2018-06-20T22:22:30.057Z,9.60
2018-06-20T22:24:59.053Z,8.80
2018-06-20T22:27:27.996Z,8.53
2018-06-20T22:29:56.916Z,9.20
2018-06-20T22:32:26.090Z,8.37
2018-06-20T22:34:55.022Z,8.77
2018-06-20T22:37:23.960Z,9.87
2018-06-20T22:39:52.929Z,9.70
2018-06-20T22:42:22.060Z,9.37
2018-06-20T22:44:51.352Z,10.17
2018-06-20T22:47:20.278Z,9.50
2018-06-20T22:49:49.298Z,10.10
2018-06-20T22:52:18.254Z,9.83
2018-06-20T22:54:47.250Z,9.87
2018-06-20T22:57:16.174Z,9.77
2018-06-20T22:59:45.119Z,10.07
2018-06-20T23:02:14.158Z,8.87
2018-06-20T23:04:43.125Z,10.17
2018-06-20T23:07:12.089Z,9.10
2018-06-20T23:09:41.048Z,10.00
2018-06-20T23:12:09.989Z,10.13
2018-06-20T23:14:39.010Z,9.27
2018-06-20T23:17:08.029Z,9.93
2018-06-20T23:19:37.021Z,9.40
2018-06-20T23:22:06.020Z,8.53
2018-06-20T23:24:35.143Z,8.93
2018-06-20T23:27:04.294Z,9.33
2018-06-20T23:29:33.257Z,9.10
2018-06-20T23:32:02.225Z,8.50
2018-06-20T23:34:31.165Z,8.27
2018-06-20T23:37:00.110Z,8.27
2018-06-20T23:39:29.064Z,8.40
2018-06-20T23:41:58.029Z,7.50
2018-06-20T23:44:27.024Z,7.67
2018-06-20T23:46:56.001Z,7.70
2018-06-20T23:49:24.971Z,7.90
2018-06-20T23:51:53.906Z,7.53
2018-06-20T23:54:22.872Z,7.33
2018-06-20T23:56:51.900Z,7.10
2018-06-20T23:59:20.918Z,7.27
